sensor_id;sensor_type;location;lat;lon;timestamp;pressure;altitude;pressure_sealevel;temperature;humidity
58690;BME280;44470;53.206;-6.106;2023-10-31T00:02:02;99284.16;;;21.45;56.34
58690;BME280;44470;53.206;-6.106;2023-10-31T00:04:27;99284.31;;;21.42;55.71
58690;BME280;44470;53.206;-6.106;2023-10-31T00:06:53;99286.03;;;21.43;55.82
58690;BME280;44470;53.206;-6.106;2023-10-31T00:09:21;99281.78;;;21.39;56.68
58690;BME280;44470;53.206;-6.106;2023-10-31T00:11:46;99286.81;;;21.45;56.33
58690;BME280;44470;53.206;-6.106;2023-10-31T00:14:12;99287.75;;;21.44;55.74
58690;BME280;44470;53.206;-6.106;2023-10-31T00:16:37;99285.00;;;21.45;55.85
58690;BME280;44470;53.206;-6.106;2023-10-31T00:19:02;99284.16;;;21.45;55.93
58690;BME280;44470;53.206;-6.106;2023-10-31T00:21:28;99286.81;;;21.45;55.82
58690;BME280;44470;53.206;-6.106;2023-10-31T00:23:53;99285.88;;;21.46;56.02
58690;BME280;44470;53.206;-6.106;2023-10-31T00:26:19;99296.59;;;21.46;55.98
58690;BME280;44470;53.206;-6.106;2023-10-31T00:28:50;99299.16;;;21.47;56.72
58690;BME280;44470;53.206;-6.106;2023-10-31T00:31:16;99298.38;;;21.45;56.19
58690;BME280;44470;53.206;-6.106;2023-10-31T00:33:41;99299.16;;;21.47;56.04
58690;BME280;44470;53.206;-6.106;2023-10-31T00:36:07;99301.94;;;21.46;55.58
58690;BME280;44470;53.206;-6.106;2023-10-31T00:38:33;99304.63;;;21.46;55.91
58690;BME280;44470;53.206;-6.106;2023-10-31T00:40:59;99296.66;;;21.44;56.07
58690;BME280;44470;53.206;-6.106;2023-10-31T00:43:24;99298.31;;;21.47;56.10
58690;BME280;44470;53.206;-6.106;2023-10-31T00:45:50;99290.34;;;21.45;55.37
58690;BME280;44470;53.206;-6.106;2023-10-31T00:48:15;99301.94;;;21.46;55.65
58690;BME280;44470;53.206;-6.106;2023-10-31T00:50:40;99296.59;;;21.46;55.91
58690;BME280;44470;53.206;-6.106;2023-10-31T00:53:06;99299.31;;;21.44;55.94
58690;BME280;44470;53.206;-6.106;2023-10-31T00:55:32;99296.59;;;21.46;55.91
58690;BME280;44470;53.206;-6.106;2023-10-31T00:57:57;99305.41;;;21.48;55.56
58690;BME280;44470;53.206;-6.106;2023-10-31T01:00:23;99304.53;;;21.47;55.91
58690;BME280;44470;53.206;-6.106;2023-10-31T01:02:48;99298.31;;;21.47;55.45
58690;BME280;44470;53.206;-6.106;2023-10-31T01:05:13;99307.19;;;21.47;55.41
58690;BME280;44470;53.206;-6.106;2023-10-31T01:07:40;99299.16;;;21.47;55.58
58690;BME280;44470;53.206;-6.106;2023-10-31T01:10:08;99300.06;;;21.48;55.90
58690;BME280;44470;53.206;-6.106;2023-10-31T01:12:33;99306.34;;;21.47;55.86
58690;BME280;44470;53.206;-6.106;2023-10-31T01:15:00;99301.78;;;21.49;55.82
58690;BME280;44470;53.206;-6.106;2023-10-31T01:17:26;99302.72;;;21.48;55.44
58690;BME280;44470;53.206;-6.106;2023-10-31T01:19:51;99301.78;;;21.49;55.23
58690;BME280;44470;53.206;-6.106;2023-10-31T01:22:17;99301.78;;;21.49;55.56
58690;BME280;44470;53.206;-6.106;2023-10-31T01:24:42;99300.84;;;21.50;56.10
58690;BME280;44470;53.206;-6.106;2023-10-31T01:27:08;99307.13;;;21.49;55.44
58690;BME280;44470;53.206;-6.106;2023-10-31T01:29:34;99307.13;;;21.49;55.79
58690;BME280;44470;53.206;-6.106;2023-10-31T01:32:00;99302.72;;;21.48;55.11
58690;BME280;44470;53.206;-6.106;2023-10-31T01:34:27;99301.78;;;21.49;55.58
58690;BME280;44470;53.206;-6.106;2023-10-31T01:36:52;99307.13;;;21.49;55.55
58690;BME280;44470;53.206;-6.106;2023-10-31T01:39:18;99305.41;;;21.48;54.86
58690;BME280;44470;53.206;-6.106;2023-10-31T01:41:44;99305.41;;;21.48;55.54
58690;BME280;44470;53.206;-6.106;2023-10-31T01:44:10;99297.44;;;21.46;55.15
58690;BME280;44470;53.206;-6.106;2023-10-31T01:46:35;99307.13;;;21.49;55.25
58690;BME280;44470;53.206;-6.106;2023-10-31T01:49:01;99314.22;;;21.50;55.23
58690;BME280;44470;53.206;-6.106;2023-10-31T01:51:28;99309.75;;;21.51;54.96
58690;BME280;44470;53.206;-6.106;2023-10-31T01:53:54;99315.97;;;21.51;55.17
58690;BME280;44470;53.206;-6.106;2023-10-31T01:56:19;99310.69;;;21.49;54.88
58690;BME280;44470;53.206;-6.106;2023-10-31T01:58:45;99308.88;;;21.50;55.01
58690;BME280;44470;53.206;-6.106;2023-10-31T02:01:11;99306.19;;;21.50;54.89
58690;BME280;44470;53.206;-6.106;2023-10-31T02:03:37;99308.03;;;21.49;54.96
58690;BME280;44470;53.206;-6.106;2023-10-31T02:06:04;99311.56;;;21.50;55.42
58690;BME280;44470;53.206;-6.106;2023-10-31T02:08:29;99314.22;;;21.50;55.59
58690;BME280;44470;53.206;-6.106;2023-10-31T02:10:55;99318.63;;;21.51;55.31
58690;BME280;44470;53.206;-6.106;2023-10-31T02:13:21;99315.97;;;21.51;55.46
58690;BME280;44470;53.206;-6.106;2023-10-31T02:15:46;99315.09;;;21.51;55.28
58690;BME280;44470;53.206;-6.106;2023-10-31T02:18:12;99320.38;;;21.52;55.48
58690;BME280;44470;53.206;-6.106;2023-10-31T02:20:37;99318.63;;;21.51;55.00
58690;BME280;44470;53.206;-6.106;2023-10-31T02:23:03;99315.97;;;21.51;55.33
58690;BME280;44470;53.206;-6.106;2023-10-31T02:25:28;99322.19;;;21.52;55.17
58690;BME280;44470;53.206;-6.106;2023-10-31T02:27:54;99326.66;;;21.51;54.78
58690;BME280;44470;53.206;-6.106;2023-10-31T02:30:19;99325.81;;;21.51;54.85
58690;BME280;44470;53.206;-6.106;2023-10-31T02:32:45;99330.22;;;21.52;55.01
58690;BME280;44470;53.206;-6.106;2023-10-31T02:35:11;99326.66;;;21.51;55.08
58690;BME280;44470;53.206;-6.106;2023-10-31T02:37:37;99329.28;;;21.53;54.90
58690;BME280;44470;53.206;-6.106;2023-10-31T02:40:05;99333.84;;;21.51;54.93
58690;BME280;44470;53.206;-6.106;2023-10-31T02:42:31;99329.56;;;21.46;55.06
58690;BME280;44470;53.206;-6.106;2023-10-31T02:44:57;99333.75;;;21.52;54.98
58690;BME280;44470;53.206;-6.106;2023-10-31T02:47:23;99332.91;;;21.52;54.63
58690;BME280;44470;53.206;-6.106;2023-10-31T02:49:48;99335.63;;;21.50;55.08
58690;BME280;44470;53.206;-6.106;2023-10-31T02:52:13;99340.84;;;21.53;54.91
58690;BME280;44470;53.206;-6.106;2023-10-31T02:54:39;99335.50;;;21.53;54.91
58690;BME280;44470;53.206;-6.106;2023-10-31T02:57:04;99337.31;;;21.53;55.16
58690;BME280;44470;53.206;-6.106;2023-10-31T02:59:30;99339.09;;;21.52;54.99
58690;BME280;44470;53.206;-6.106;2023-10-31T03:01:56;99341.72;;;21.54;55.12
58690;BME280;44470;53.206;-6.106;2023-10-31T03:04:21;99336.38;;;21.54;55.14
58690;BME280;44470;53.206;-6.106;2023-10-31T03:06:47;99336.44;;;21.52;54.67
58690;BME280;44470;53.206;-6.106;2023-10-31T03:09:12;99338.16;;;21.53;54.57
58690;BME280;44470;53.206;-6.106;2023-10-31T03:11:38;99342.66;;;21.53;55.08
58690;BME280;44470;53.206;-6.106;2023-10-31T03:14:03;99345.34;;;21.53;54.92
58690;BME280;44470;53.206;-6.106;2023-10-31T03:16:29;99348.88;;;21.53;55.06
58690;BME280;44470;53.206;-6.106;2023-10-31T03:18:55;99345.25;;;21.54;55.28
58690;BME280;44470;53.206;-6.106;2023-10-31T03:21:21;99347.94;;;21.54;55.35
58690;BME280;44470;53.206;-6.106;2023-10-31T03:23:47;99344.47;;;21.52;54.77
58690;BME280;44470;53.206;-6.106;2023-10-31T03:26:14;99343.53;;;21.53;55.01
58690;BME280;44470;53.206;-6.106;2023-10-31T03:28:39;99352.50;;;21.52;54.70
58690;BME280;44470;53.206;-6.106;2023-10-31T03:31:04;99353.28;;;21.54;55.23
58690;BME280;44470;53.206;-6.106;2023-10-31T03:33:30;99349.81;;;21.52;54.48
58690;BME280;44470;53.206;-6.106;2023-10-31T03:35:55;99357.78;;;21.54;54.93
58690;BME280;44470;53.206;-6.106;2023-10-31T03:38:21;99364.00;;;21.54;55.09
58690;BME280;44470;53.206;-6.106;2023-10-31T03:40:46;99365.72;;;21.55;55.24
58690;BME280;44470;53.206;-6.106;2023-10-31T03:43:12;99352.59;;;21.51;55.16
58690;BME280;44470;53.206;-6.106;2023-10-31T03:45:38;99355.09;;;21.54;54.72
58690;BME280;44470;53.206;-6.106;2023-10-31T03:48:04;99360.53;;;21.52;55.12
58690;BME280;44470;53.206;-6.106;2023-10-31T03:50:29;99365.72;;;21.55;55.44
58690;BME280;44470;53.206;-6.106;2023-10-31T03:52:55;99363.13;;;21.54;54.75
58690;BME280;44470;53.206;-6.106;2023-10-31T03:55:20;99357.78;;;21.54;55.11
58690;BME280;44470;53.206;-6.106;2023-10-31T03:57:46;99370.22;;;21.55;54.64
58690;BME280;44470;53.206;-6.106;2023-10-31T04:00:12;99362.25;;;21.53;54.57
58690;BME280;44470;53.206;-6.106;2023-10-31T04:02:40;99362.25;;;21.53;54.42
58690;BME280;44470;53.206;-6.106;2023-10-31T04:05:07;99359.59;;;21.53;54.25
58690;BME280;44470;53.206;-6.106;2023-10-31T04:07:34;99369.34;;;21.54;54.42
58690;BME280;44470;53.206;-6.106;2023-10-31T04:10:00;99359.53;;;21.55;54.88
58690;BME280;44470;53.206;-6.106;2023-10-31T04:12:27;99365.72;;;21.55;54.85
58690;BME280;44470;53.206;-6.106;2023-10-31T04:14:54;99363.00;;;21.57;54.77
58690;BME280;44470;53.206;-6.106;2023-10-31T04:17:22;99376.38;;;21.57;54.77
58690;BME280;44470;53.206;-6.106;2023-10-31T04:19:49;99369.34;;;21.54;54.53
58690;BME280;44470;53.206;-6.106;2023-10-31T04:22:16;99384.41;;;21.57;54.54
58690;BME280;44470;53.206;-6.106;2023-10-31T04:42:15;99391.66;;;21.55;55.01
58690;BME280;44470;53.206;-6.106;2023-10-31T04:44:43;99401.47;;;21.54;55.08
58690;BME280;44470;53.206;-6.106;2023-10-31T04:47:08;99402.34;;;21.55;54.96
58690;BME280;44470;53.206;-6.106;2023-10-31T04:49:35;99402.34;;;21.55;55.25
58690;BME280;44470;53.206;-6.106;2023-10-31T04:52:00;99404.09;;;21.56;54.74
58690;BME280;44470;53.206;-6.106;2023-10-31T04:54:26;99413.06;;;21.55;55.26
58690;BME280;44470;53.206;-6.106;2023-10-31T04:56:51;99414.00;;;21.54;55.05
58690;BME280;44470;53.206;-6.106;2023-10-31T04:59:16;99404.16;;;21.54;55.09
58690;BME280;44470;53.206;-6.106;2023-10-31T05:01:47;99414.84;;;21.54;55.03
58690;BME280;44470;53.206;-6.106;2023-10-31T05:04:13;99413.06;;;21.55;55.03
58690;BME280;44470;53.206;-6.106;2023-10-31T05:06:38;99416.81;;;21.51;54.37
58690;BME280;44470;53.206;-6.106;2023-10-31T05:09:03;99415.78;;;21.53;54.34
58690;BME280;44470;53.206;-6.106;2023-10-31T05:11:29;99419.28;;;21.55;54.69
58690;BME280;44470;53.206;-6.106;2023-10-31T05:13:55;99429.13;;;21.55;54.42
58690;BME280;44470;53.206;-6.106;2023-10-31T05:16:21;99424.78;;;21.52;54.28
58690;BME280;44470;53.206;-6.106;2023-10-31T05:18:47;99423.97;;;21.50;54.92
58690;BME280;44470;53.206;-6.106;2023-10-31T05:21:12;99434.53;;;21.53;54.49
58690;BME280;44470;53.206;-6.106;2023-10-31T05:23:43;99431.06;;;21.51;54.22
58690;BME280;44470;53.206;-6.106;2023-10-31T05:26:09;99431.00;;;21.53;54.91
58690;BME280;44470;53.206;-6.106;2023-10-31T05:28:35;99421.09;;;21.55;54.75
58690;BME280;44470;53.206;-6.106;2023-10-31T05:31:00;99423.69;;;21.56;54.49
58690;BME280;44470;53.206;-6.106;2023-10-31T05:33:26;99426.50;;;21.53;54.61
58690;BME280;44470;53.206;-6.106;2023-10-31T05:35:51;99430.13;;;21.52;54.79
58690;BME280;44470;53.206;-6.106;2023-10-31T05:38:16;99430.28;;;21.49;53.83
58690;BME280;44470;53.206;-6.106;2023-10-31T05:40:42;99442.81;;;21.48;54.36
58690;BME280;44470;53.206;-6.106;2023-10-31T05:43:07;99439.25;;;21.48;54.10
58690;BME280;44470;53.206;-6.106;2023-10-31T05:45:33;99434.78;;;21.48;54.23
58690;BME280;44470;53.206;-6.106;2023-10-31T05:47:59;99435.63;;;21.49;54.18
58690;BME280;44470;53.206;-6.106;2023-10-31T05:50:24;99435.63;;;21.49;54.23
58690;BME280;44470;53.206;-6.106;2023-10-31T05:52:50;99437.44;;;21.48;54.16
58690;BME280;44470;53.206;-6.106;2023-10-31T05:55:15;99444.59;;;21.48;53.72
58690;BME280;44470;53.206;-6.106;2023-10-31T05:57:41;99447.28;;;21.48;53.93
58690;BME280;44470;53.206;-6.106;2023-10-31T06:00:06;99454.41;;;21.47;53.96
58690;BME280;44470;53.206;-6.106;2023-10-31T06:02:37;99458.91;;;21.47;54.30
58690;BME280;44470;53.206;-6.106;2023-10-31T06:05:03;99466.91;;;21.48;53.81
58690;BME280;44470;53.206;-6.106;2023-10-31T06:07:29;99458.91;;;21.47;53.66
58690;BME280;44470;53.206;-6.106;2023-10-31T06:09:55;99464.28;;;21.47;53.80
58690;BME280;44470;53.206;-6.106;2023-10-31T06:12:21;99471.38;;;21.48;54.16
58690;BME280;44470;53.206;-6.106;2023-10-31T06:14:50;99474.97;;;21.47;53.66
58690;BME280;44470;53.206;-6.106;2023-10-31T06:17:16;99481.19;;;21.47;54.08
58690;BME280;44470;53.206;-6.106;2023-10-31T06:19:42;99475.84;;;21.47;53.64
58690;BME280;44470;53.206;-6.106;2023-10-31T06:22:11;99485.69;;;21.47;54.02
58690;BME280;44470;53.206;-6.106;2023-10-31T06:24:36;99487.44;;;21.48;54.30
58690;BME280;44470;53.206;-6.106;2023-10-31T06:27:01;99483.00;;;21.47;53.46
58690;BME280;44470;53.206;-6.106;2023-10-31T06:29:28;99476.72;;;21.48;53.38
58690;BME280;44470;53.206;-6.106;2023-10-31T06:31:53;99480.34;;;21.47;54.03
58690;BME280;44470;53.206;-6.106;2023-10-31T06:34:19;99488.38;;;21.47;53.84
58690;BME280;44470;53.206;-6.106;2023-10-31T06:36:44;99485.69;;;21.47;53.77
58690;BME280;44470;53.206;-6.106;2023-10-31T06:39:10;99493.88;;;21.44;53.96
58690;BME280;44470;53.206;-6.106;2023-10-31T06:41:35;99489.31;;;21.46;53.67
58690;BME280;44470;53.206;-6.106;2023-10-31T06:44:01;99488.38;;;21.47;54.02
58690;BME280;44470;53.206;-6.106;2023-10-31T06:46:26;99499.06;;;21.47;53.47
58690;BME280;44470;53.206;-6.106;2023-10-31T06:48:52;99495.59;;;21.45;53.71
58690;BME280;44470;53.206;-6.106;2023-10-31T06:51:17;99500.00;;;21.46;53.11
58690;BME280;44470;53.206;-6.106;2023-10-31T06:53:42;99505.38;;;21.46;53.45
58690;BME280;44470;53.206;-6.106;2023-10-31T06:56:08;99507.97;;;21.47;53.53
58690;BME280;44470;53.206;-6.106;2023-10-31T06:58:33;99512.47;;;21.47;53.70
58690;BME280;44470;53.206;-6.106;2023-10-31T07:00:59;99520.53;;;21.45;53.10
58690;BME280;44470;53.206;-6.106;2023-10-31T07:03:24;99519.56;;;21.48;54.11
58690;BME280;44470;53.206;-6.106;2023-10-31T07:05:50;99530.41;;;21.45;52.97
58690;BME280;44470;53.206;-6.106;2023-10-31T07:08:15;99532.13;;;21.46;53.28
58690;BME280;44470;53.206;-6.106;2023-10-31T07:10:41;99536.59;;;21.45;52.94
58690;BME280;44470;53.206;-6.106;2023-10-31T07:13:06;99542.84;;;21.46;53.02
58690;BME280;44470;53.206;-6.106;2023-10-31T07:15:31;99542.84;;;21.46;53.54
58690;BME280;44470;53.206;-6.106;2023-10-31T07:17:57;99543.69;;;21.46;52.85
58690;BME280;44470;53.206;-6.106;2023-10-31T07:20:22;99549.94;;;21.47;53.27
58690;BME280;44470;53.206;-6.106;2023-10-31T07:22:48;99550.00;;;21.45;53.37
58690;BME280;44470;53.206;-6.106;2023-10-31T07:25:13;99555.28;;;21.47;53.04
58690;BME280;44470;53.206;-6.106;2023-10-31T07:27:39;99551.66;;;21.48;53.31
58690;BME280;44470;53.206;-6.106;2023-10-31T07:30:05;99550.78;;;21.47;53.58
58690;BME280;44470;53.206;-6.106;2023-10-31T07:32:31;99555.28;;;21.47;53.70
58690;BME280;44470;53.206;-6.106;2023-10-31T07:34:56;99564.25;;;21.46;52.96
58690;BME280;44470;53.206;-6.106;2023-10-31T07:37:22;99564.25;;;21.46;53.25
58690;BME280;44470;53.206;-6.106;2023-10-31T07:39:48;99557.03;;;21.48;53.60
58690;BME280;44470;53.206;-6.106;2023-10-31T07:42:13;99563.31;;;21.47;53.55
58690;BME280;44470;53.206;-6.106;2023-10-31T07:44:39;99563.31;;;21.47;52.72
58690;BME280;44470;53.206;-6.106;2023-10-31T07:47:04;99566.00;;;21.47;53.41
58690;BME280;44470;53.206;-6.106;2023-10-31T07:49:30;99573.13;;;21.46;53.41
58690;BME280;44470;53.206;-6.106;2023-10-31T07:51:55;99574.03;;;21.47;53.22
58690;BME280;44470;53.206;-6.106;2023-10-31T07:54:21;99579.38;;;21.47;53.44
58690;BME280;44470;53.206;-6.106;2023-10-31T07:56:46;99586.53;;;21.46;53.42
58690;BME280;44470;53.206;-6.106;2023-10-31T07:59:12;99586.63;;;21.45;52.97
58690;BME280;44470;53.206;-6.106;2023-10-31T08:01:37;99591.81;;;21.48;53.88
58690;BME280;44470;53.206;-6.106;2023-10-31T08:04:03;99594.50;;;21.48;52.95
58690;BME280;44470;53.206;-6.106;2023-10-31T08:06:28;99592.75;;;21.47;52.75
58690;BME280;44470;53.206;-6.106;2023-10-31T08:08:54;99597.19;;;21.48;53.54
58690;BME280;44470;53.206;-6.106;2023-10-31T08:11:19;99596.38;;;21.46;53.19
58690;BME280;44470;53.206;-6.106;2023-10-31T08:13:45;99598.13;;;21.47;53.39
58690;BME280;44470;53.206;-6.106;2023-10-31T08:16:16;99598.97;;;21.47;54.01
58690;BME280;44470;53.206;-6.106;2023-10-31T08:18:41;99601.72;;;21.46;53.11
58690;BME280;44470;53.206;-6.106;2023-10-31T08:21:07;99607.09;;;21.46;53.23
58690;BME280;44470;53.206;-6.106;2023-10-31T08:23:32;99603.47;;;21.47;53.07
58690;BME280;44470;53.206;-6.106;2023-10-31T08:25:58;99602.59;;;21.46;53.27
58690;BME280;44470;53.206;-6.106;2023-10-31T08:28:23;99607.94;;;21.46;53.21
58690;BME280;44470;53.206;-6.106;2023-10-31T08:30:49;99612.44;;;21.46;53.06
58690;BME280;44470;53.206;-6.106;2023-10-31T08:33:14;99610.69;;;21.45;53.31
58690;BME280;44470;53.206;-6.106;2023-10-31T08:35:40;99620.53;;;21.44;53.22
58690;BME280;44470;53.206;-6.106;2023-10-31T08:38:06;99627.63;;;21.45;53.17
58690;BME280;44470;53.206;-6.106;2023-10-31T08:40:32;99636.53;;;21.46;52.80
58690;BME280;44470;53.206;-6.106;2023-10-31T08:42:57;99642.81;;;21.45;52.82
58690;BME280;44470;53.206;-6.106;2023-10-31T08:45:23;99648.19;;;21.45;53.11
58690;BME280;44470;53.206;-6.106;2023-10-31T08:47:51;99642.81;;;21.45;53.13
58690;BME280;44470;53.206;-6.106;2023-10-31T08:50:16;99642.81;;;21.45;53.23
58690;BME280;44470;53.206;-6.106;2023-10-31T08:52:42;99648.19;;;21.45;52.83
58690;BME280;44470;53.206;-6.106;2023-10-31T08:55:07;99649.91;;;21.46;53.79
58690;BME280;44470;53.206;-6.106;2023-10-31T08:57:33;99650.84;;;21.45;53.40
58690;BME280;44470;53.206;-6.106;2023-10-31T09:00:01;99652.66;;;21.44;53.36
58690;BME280;44470;53.206;-6.106;2023-10-31T09:02:30;99655.13;;;21.49;53.58
58690;BME280;44470;53.206;-6.106;2023-10-31T09:04:55;99657.69;;;21.52;52.93
58690;BME280;44470;53.206;-6.106;2023-10-31T09:07:20;99655.88;;;21.53;52.53
58690;BME280;44470;53.206;-6.106;2023-10-31T09:09:46;99660.34;;;21.52;52.33
58690;BME280;44470;53.206;-6.106;2023-10-31T09:12:11;99660.34;;;21.52;53.23
58690;BME280;44470;53.206;-6.106;2023-10-31T09:14:37;99665.72;;;21.52;52.35
58690;BME280;44470;53.206;-6.106;2023-10-31T09:17:02;99666.59;;;21.53;52.59
58690;BME280;44470;53.206;-6.106;2023-10-31T09:19:27;99651.47;;;21.52;52.58
58690;BME280;44470;53.206;-6.106;2023-10-31T09:21:54;99659.50;;;21.52;52.34
58690;BME280;44470;53.206;-6.106;2023-10-31T09:24:19;99656.75;;;21.53;53.24
58690;BME280;44470;53.206;-6.106;2023-10-31T09:26:45;99655.88;;;21.53;53.06
58690;BME280;44470;53.206;-6.106;2023-10-31T09:29:10;99656.75;;;21.53;52.89
58690;BME280;44470;53.206;-6.106;2023-10-31T09:31:36;99658.47;;;21.54;52.83
58690;BME280;44470;53.206;-6.106;2023-10-31T09:34:01;99656.75;;;21.53;53.58
58690;BME280;44470;53.206;-6.106;2023-10-31T09:36:31;99655.81;;;21.54;53.13
58690;BME280;44470;53.206;-6.106;2023-10-31T09:38:57;99663.84;;;21.54;53.24
58690;BME280;44470;53.206;-6.106;2023-10-31T09:41:22;99667.41;;;21.55;53.64
58690;BME280;44470;53.206;-6.106;2023-10-31T09:43:47;99657.63;;;21.54;52.64
58690;BME280;44470;53.206;-6.106;2023-10-31T09:46:13;99660.22;;;21.55;54.00
58690;BME280;44470;53.206;-6.106;2023-10-31T09:48:38;99662.03;;;21.55;53.45
58690;BME280;44470;53.206;-6.106;2023-10-31T09:51:04;99658.44;;;21.56;53.71
58690;BME280;44470;53.206;-6.106;2023-10-31T09:53:31;99655.75;;;21.56;53.31
58690;BME280;44470;53.206;-6.106;2023-10-31T09:55:57;99659.34;;;21.55;53.32
58690;BME280;44470;53.206;-6.106;2023-10-31T09:58:23;99665.56;;;21.55;53.57
58690;BME280;44470;53.206;-6.106;2023-10-31T10:00:48;99665.56;;;21.55;54.20
58690;BME280;44470;53.206;-6.106;2023-10-31T10:03:14;99667.31;;;21.56;53.63
58690;BME280;44470;53.206;-6.106;2023-10-31T10:05:40;99668.25;;;21.55;53.14
58690;BME280;44470;53.206;-6.106;2023-10-31T10:08:09;99673.56;;;21.57;54.03
58690;BME280;44470;53.206;-6.106;2023-10-31T10:10:35;99672.66;;;21.56;53.73
58690;BME280;44470;53.206;-6.106;2023-10-31T10:13:01;99675.34;;;21.56;53.47
58690;BME280;44470;53.206;-6.106;2023-10-31T10:15:28;99680.69;;;21.56;54.40
58690;BME280;44470;53.206;-6.106;2023-10-31T10:17:53;99682.44;;;21.57;53.61
58690;BME280;44470;53.206;-6.106;2023-10-31T10:20:19;99680.69;;;21.56;53.39
58690;BME280;44470;53.206;-6.106;2023-10-31T10:22:45;99687.78;;;21.57;53.65
58690;BME280;44470;53.206;-6.106;2023-10-31T10:25:11;99679.75;;;21.57;53.92
58690;BME280;44470;53.206;-6.106;2023-10-31T10:27:39;99687.78;;;21.57;54.15
58690;BME280;44470;53.206;-6.106;2023-10-31T10:30:07;99686.94;;;21.57;53.26
58690;BME280;44470;53.206;-6.106;2023-10-31T10:32:33;99690.47;;;21.57;54.12
58690;BME280;44470;53.206;-6.106;2023-10-31T10:34:58;99686.00;;;21.58;54.14
58690;BME280;44470;53.206;-6.106;2023-10-31T10:37:25;99692.22;;;21.58;54.22
58690;BME280;44470;53.206;-6.106;2023-10-31T10:39:51;99693.16;;;21.57;54.10
58690;BME280;44470;53.206;-6.106;2023-10-31T10:42:21;99696.72;;;21.58;53.64
58690;BME280;44470;53.206;-6.106;2023-10-31T10:44:50;99702.91;;;21.58;53.98
58690;BME280;44470;53.206;-6.106;2023-10-31T10:47:17;99708.28;;;21.58;54.10
58690;BME280;44470;53.206;-6.106;2023-10-31T10:49:43;99698.50;;;21.57;54.25
58690;BME280;44470;53.206;-6.106;2023-10-31T10:52:22;99701.13;;;21.59;54.23
58690;BME280;44470;53.206;-6.106;2023-10-31T10:59:51;99702.91;;;21.58;54.46
58690;BME280;44470;53.206;-6.106;2023-10-31T11:02:21;99699.31;;;21.59;53.78
58690;BME280;44470;53.206;-6.106;2023-10-31T11:04:48;99699.31;;;21.59;54.24
58690;BME280;44470;53.206;-6.106;2023-10-31T11:07:13;99700.25;;;21.58;53.76
58690;BME280;44470;53.206;-6.106;2023-10-31T11:09:41;99697.50;;;21.60;53.68
58690;BME280;44470;53.206;-6.106;2023-10-31T11:12:08;99699.31;;;21.59;54.05
58690;BME280;44470;53.206;-6.106;2023-10-31T11:14:35;99703.81;;;21.59;53.61
58690;BME280;44470;53.206;-6.106;2023-10-31T11:17:02;99702.91;;;21.58;54.58
58690;BME280;44470;53.206;-6.106;2023-10-31T11:19:31;99707.34;;;21.59;54.03
58690;BME280;44470;53.206;-6.106;2023-10-31T11:22:00;99710.00;;;21.59;54.00
58690;BME280;44470;53.206;-6.106;2023-10-31T11:24:26;99718.94;;;21.60;54.01
58690;BME280;44470;53.206;-6.106;2023-10-31T11:26:53;99716.25;;;21.60;53.64
58690;BME280;44470;53.206;-6.106;2023-10-31T11:29:19;99718.03;;;21.59;53.72
58690;BME280;44470;53.206;-6.106;2023-10-31T11:31:44;99717.09;;;21.60;54.38
58690;BME280;44470;53.206;-6.106;2023-10-31T11:34:10;99710.00;;;21.59;54.45
58690;BME280;44470;53.206;-6.106;2023-10-31T11:36:35;99703.72;;;21.60;54.27
58690;BME280;44470;53.206;-6.106;2023-10-31T11:39:20;99712.63;;;21.61;54.36
58690;BME280;44470;53.206;-6.106;2023-10-31T11:41:54;99710.91;;;21.60;54.33
58690;BME280;44470;53.206;-6.106;2023-10-31T11:44:25;99706.41;;;21.60;54.37
58690;BME280;44470;53.206;-6.106;2023-10-31T11:46:50;99710.91;;;21.60;54.39
58690;BME280;44470;53.206;-6.106;2023-10-31T11:49:18;99707.34;;;21.59;54.40
58690;BME280;44470;53.206;-6.106;2023-10-31T11:51:46;99717.19;;;21.59;54.23
58690;BME280;44470;53.206;-6.106;2023-10-31T11:54:15;99715.38;;;21.59;54.31
58690;BME280;44470;53.206;-6.106;2023-10-31T11:56:41;99713.56;;;21.60;54.35
58690;BME280;44470;53.206;-6.106;2023-10-31T11:59:07;99714.56;;;21.57;54.91
58690;BME280;44470;53.206;-6.106;2023-10-31T12:01:32;99705.69;;;21.57;54.75
58690;BME280;44470;53.206;-6.106;2023-10-31T12:03:58;99711.88;;;21.57;54.77
58690;BME280;44470;53.206;-6.106;2023-10-31T12:06:24;99712.69;;;21.59;54.78
58690;BME280;44470;53.206;-6.106;2023-10-31T12:08:49;99708.28;;;21.58;55.05
58690;BME280;44470;53.206;-6.106;2023-10-31T12:11:15;99706.41;;;21.60;54.72
58690;BME280;44470;53.206;-6.106;2023-10-31T12:13:51;99704.66;;;21.59;55.34
58690;BME280;44470;53.206;-6.106;2023-10-31T12:16:16;99695.69;;;21.60;55.14
58690;BME280;44470;53.206;-6.106;2023-10-31T12:18:42;99684.25;;;21.57;55.21
58690;BME280;44470;53.206;-6.106;2023-10-31T12:21:08;99681.50;;;21.58;55.19
58690;BME280;44470;53.206;-6.106;2023-10-31T12:23:34;99680.56;;;21.59;55.11
58690;BME280;44470;53.206;-6.106;2023-10-31T12:25:59;99688.59;;;21.59;55.15
58690;BME280;44470;53.206;-6.106;2023-10-31T12:28:25;99690.47;;;21.57;55.11
58690;BME280;44470;53.206;-6.106;2023-10-31T12:30:52;99693.94;;;21.59;55.54
58690;BME280;44470;53.206;-6.106;2023-10-31T12:33:19;99693.94;;;21.59;55.60
58690;BME280;44470;53.206;-6.106;2023-10-31T12:35:45;99687.78;;;21.57;55.48
58690;BME280;44470;53.206;-6.106;2023-10-31T12:38:11;99699.31;;;21.59;55.58
58690;BME280;44470;53.206;-6.106;2023-10-31T12:40:37;99692.16;;;21.60;55.29
58690;BME280;44470;53.206;-6.106;2023-10-31T12:43:03;99684.19;;;21.58;55.13
58690;BME280;44470;53.206;-6.106;2023-10-31T12:45:29;99692.16;;;21.60;55.47
58690;BME280;44470;53.206;-6.106;2023-10-31T12:48:04;99684.25;;;21.57;55.28
58690;BME280;44470;53.206;-6.106;2023-10-31T12:50:30;99679.72;;;21.59;55.36
58690;BME280;44470;53.206;-6.106;2023-10-31T12:52:56;99685.91;;;21.59;55.58
58690;BME280;44470;53.206;-6.106;2023-10-31T12:55:23;99682.44;;;21.57;55.27
58690;BME280;44470;53.206;-6.106;2023-10-31T12:57:49;99689.47;;;21.60;55.80
58690;BME280;44470;53.206;-6.106;2023-10-31T13:00:16;99686.81;;;21.60;55.69
58690;BME280;44470;53.206;-6.106;2023-10-31T13:02:44;99691.28;;;21.59;55.55
58690;BME280;44470;53.206;-6.106;2023-10-31T13:07:35;99680.66;;;21.58;55.66
58690;BME280;44470;53.206;-6.106;2023-10-31T13:10:00;99685.91;;;21.59;55.79